Time;durP1;ratioP1;P1;durP2;ratioP2;P2;SDS_P1;SDS_P2;PMS_P1;PMS_P2;Temp;Humidity;BMP_temperature;BMP_pressure;BME280_temperature;BME280_humidity;BME280_pressure;Samples;Min_cycle;Max_cycle;Signal;HPM_P1;HPM_P2
2021/05/24 00:00:18;;;;;;;2.80;1.50;;;9.70;99.90;;;;;;4936929;29;20666;-78
2021/05/24 00:02:44;;;;;;;1.05;0.77;;;9.70;99.90;;;;;;4937982;29;20253;-80
2021/05/24 00:05:13;;;;;;;2.22;1.20;;;9.70;99.90;;;;;;4936879;29;20280;-79
2021/05/24 00:07:39;;;;;;;2.75;1.10;;;9.60;99.90;;;;;;4937948;29;20176;-78
2021/05/24 00:10:09;;;;;;;1.48;1.08;;;9.60;99.90;;;;;;4937976;29;20178;-79
2021/05/24 00:12:35;;;;;;;2.60;1.13;;;9.50;99.90;;;;;;4936705;29;20534;-79
2021/05/24 00:15:02;;;;;;;1.38;1.20;;;9.50;99.90;;;;;;4936308;29;20618;-78
2021/05/24 00:17:27;;;;;;;4.57;1.35;;;9.50;99.90;;;;;;4937675;29;20192;-78
2021/05/24 00:19:53;;;;;;;4.70;1.93;;;9.50;99.90;;;;;;4936589;29;20190;-80
2021/05/24 00:22:19;;;;;;;2.60;1.23;;;9.50;99.90;;;;;;4937650;29;20564;-79
2021/05/24 00:24:44;;;;;;;1.63;1.30;;;9.50;99.90;;;;;;4937472;29;20201;-79
2021/05/24 00:27:12;;;;;;;3.73;1.30;;;9.60;99.90;;;;;;4937715;29;20185;-79
2021/05/24 00:29:38;;;;;;;2.42;1.23;;;9.60;99.90;;;;;;4937705;29;20188;-78
2021/05/24 00:32:04;;;;;;;1.33;0.93;;;9.60;99.90;;;;;;4936295;29;20181;-79
2021/05/24 00:34:29;;;;;;;2.07;1.30;;;9.60;99.90;;;;;;4936167;29;20366;-78
2021/05/24 00:36:55;;;;;;;5.23;1.17;;;9.60;99.90;;;;;;4937325;29;20422;-78
2021/05/24 00:39:22;;;;;;;3.93;1.60;;;9.60;99.90;;;;;;4937175;29;20237;-78
2021/05/24 00:41:48;;;;;;;3.65;1.58;;;9.50;99.90;;;;;;4936305;29;20182;-79
2021/05/24 00:44:14;;;;;;;3.33;0.90;;;9.50;99.90;;;;;;4937066;29;20401;-78
2021/05/24 00:46:39;;;;;;;2.00;0.90;;;9.50;99.90;;;;;;4937442;29;20201;-78
2021/05/24 00:49:06;;;;;;;3.40;1.13;;;9.50;99.90;;;;;;4936009;29;20468;-78
2021/05/24 00:51:33;;;;;;;1.92;1.17;;;9.50;99.90;;;;;;4937302;29;20174;-78
2021/05/24 00:53:59;;;;;;;2.15;1.08;;;9.50;99.90;;;;;;4936992;29;20220;-79
2021/05/24 00:56:25;;;;;;;3.53;1.30;;;9.50;99.90;;;;;;4935788;29;20182;-79
2021/05/24 00:58:52;;;;;;;4.13;1.33;;;9.40;99.90;;;;;;4937178;29;20528;-78
2021/05/24 01:01:18;;;;;;;1.42;1.33;;;9.40;99.90;;;;;;4937055;29;20425;-79
2021/05/24 01:03:44;;;;;;;5.35;1.30;;;9.40;99.90;;;;;;4936836;29;20221;-79
2021/05/24 01:06:09;;;;;;;1.48;1.20;;;9.40;99.90;;;;;;4937047;29;20278;-80
2021/05/24 01:08:35;;;;;;;3.67;1.43;;;9.40;99.90;;;;;;4936929;29;20205;-78
2021/05/24 01:11:01;;;;;;;4.73;1.57;;;9.30;99.90;;;;;;4937002;29;20193;-78
2021/05/24 01:13:26;;;;;;;2.13;1.00;;;9.40;99.90;;;;;;4936657;29;20201;-78
2021/05/24 01:15:52;;;;;;;3.80;1.40;;;9.40;99.90;;;;;;4936793;29;20194;-78
2021/05/24 01:18:18;;;;;;;2.53;0.90;;;9.40;99.90;;;;;;4936805;29;20182;-78
2021/05/24 01:20:44;;;;;;;2.50;1.27;;;9.40;99.90;;;;;;4936534;29;20650;-78
2021/05/24 01:23:11;;;;;;;0.80;0.60;;;9.30;99.90;;;;;;4935754;29;20488;-79
2021/05/24 01:25:48;;;;;;;1.42;1.33;;;9.30;99.90;;;;;;4936664;29;20220;-78
2021/05/24 01:28:16;;;;;;;2.17;1.10;;;9.40;99.90;;;;;;4936960;29;20232;-78
2021/05/24 01:30:42;;;;;;;2.55;1.05;;;9.40;99.90;;;;;;4936499;29;20178;-78
2021/05/24 01:33:09;;;;;;;1.50;1.10;;;9.50;99.90;;;;;;4936592;29;20201;-78
2021/05/24 01:35:36;;;;;;;3.08;0.90;;;9.50;99.90;;;;;;4936515;29;20178;-78
2021/05/24 01:38:03;;;;;;;4.60;1.00;;;9.60;99.90;;;;;;4936519;29;20177;-79
2021/05/24 01:40:29;;;;;;;3.17;1.10;;;9.60;99.90;;;;;;4936442;29;20522;-80
2021/05/24 01:42:57;;;;;;;3.67;1.30;;;9.60;99.90;;;;;;4936004;29;20209;-78
2021/05/24 01:45:24;;;;;;;2.38;1.40;;;9.60;99.90;;;;;;4936634;29;20165;-78
2021/05/24 01:47:50;;;;;;;1.20;0.90;;;9.70;99.90;;;;;;4919676;29;20264;-78
2021/05/24 01:50:16;;;;;;;1.73;1.00;;;9.80;99.90;;;;;;4918447;29;20284;-81
2021/05/24 01:52:43;;;;;;;2.15;1.00;;;9.90;99.90;;;;;;4934895;29;20556;-78
2021/05/24 01:55:09;;;;;;;3.83;0.90;;;9.90;99.90;;;;;;4935229;29;20213;-79
2021/05/24 01:57:35;;;;;;;1.10;1.00;;;10.00;99.90;;;;;;4936117;29;20185;-78
2021/05/24 02:00:04;;;;;;;1.80;1.00;;;9.90;99.90;;;;;;4936252;29;20184;-78
2021/05/24 02:02:29;;;;;;;1.83;1.38;;;9.90;99.90;;;;;;4934759;29;20213;-79
2021/05/24 02:04:55;;;;;;;1.43;1.10;;;10.00;99.90;;;;;;4934490;29;20256;-78
2021/05/24 02:07:21;;;;;;;2.20;0.80;;;9.90;99.90;;;;;;4934849;29;20674;-78
2021/05/24 02:09:46;;;;;;;1.97;0.93;;;9.90;99.90;;;;;;4936236;29;20651;-78
2021/05/24 02:12:12;;;;;;;1.43;0.90;;;10.00;99.90;;;;;;4935995;29;20177;-78
2021/05/24 02:14:42;;;;;;;2.97;0.93;;;9.90;99.90;;;;;;4934262;29;20221;-78
2021/05/24 02:17:08;;;;;;;3.70;1.30;;;10.00;99.90;;;;;;4934909;29;20181;-78
2021/05/24 02:19:33;;;;;;;1.33;0.80;;;10.00;99.90;;;;;;4934803;29;20647;-78
2021/05/24 02:21:59;;;;;;;2.60;0.97;;;10.10;99.90;;;;;;4935877;29;20181;-78
2021/05/24 02:24:24;;;;;;;2.97;1.47;;;10.10;99.90;;;;;;4935501;29;20228;-78
2021/05/24 02:26:50;;;;;;;1.20;1.10;;;10.10;99.90;;;;;;4934649;29;20177;-78
2021/05/24 02:29:16;;;;;;;1.63;0.90;;;10.10;99.90;;;;;;4934712;29;20214;-79
2021/05/24 02:31:41;;;;;;;0.97;0.90;;;10.10;99.90;;;;;;4935956;29;20177;-78
2021/05/24 02:34:07;;;;;;;1.90;1.17;;;10.20;99.90;;;;;;4934419;29;20715;-78
2021/05/24 02:36:34;;;;;;;4.35;1.08;;;10.20;99.90;;;;;;4935923;29;20205;-78
2021/05/24 02:39:03;;;;;;;2.25;0.90;;;10.10;99.90;;;;;;4934500;29;20636;-78
2021/05/24 02:41:29;;;;;;;2.42;0.98;;;10.20;99.90;;;;;;4934564;29;20193;-78
2021/05/24 02:43:54;;;;;;;2.60;1.20;;;10.20;99.90;;;;;;4935415;29;20565;-78
2021/05/24 02:46:20;;;;;;;3.80;1.23;;;10.20;99.90;;;;;;4936007;29;20178;-78
2021/05/24 02:48:46;;;;;;;2.93;1.17;;;10.20;99.90;;;;;;4935784;29;20205;-78
2021/05/24 02:51:11;;;;;;;1.93;0.97;;;10.20;99.90;;;;;;4934579;29;20229;-78
2021/05/24 02:53:37;;;;;;;1.40;1.00;;;10.30;99.90;;;;;;4935514;29;20226;-78
2021/05/24 02:56:03;;;;;;;2.97;1.00;;;10.30;99.90;;;;;;4934559;29;20775;-78
2021/05/24 02:58:29;;;;;;;3.53;1.10;;;10.30;99.90;;;;;;4935669;29;20425;-78
2021/05/24 03:00:54;;;;;;;2.30;1.07;;;10.30;99.90;;;;;;4935505;29;20651;-77
2021/05/24 03:03:22;;;;;;;1.70;1.10;;;10.30;99.90;;;;;;4937535;29;20228;-78
2021/05/24 03:05:48;;;;;;;2.08;0.88;;;10.30;99.90;;;;;;4939197;29;20545;-78
2021/05/24 03:08:13;;;;;;;1.37;1.03;;;10.40;99.90;;;;;;4939246;29;20196;-77
2021/05/24 03:10:40;;;;;;;2.17;1.00;;;10.40;99.90;;;;;;4939151;29;20173;-78
2021/05/24 03:13:06;;;;;;;1.33;0.90;;;10.40;99.90;;;;;;4938541;29;20512;-78
2021/05/24 03:15:32;;;;;;;1.70;1.00;;;10.40;99.90;;;;;;4937465;29;20296;-78
2021/05/24 03:17:58;;;;;;;1.90;0.97;;;10.40;99.90;;;;;;4938879;29;20200;-78
2021/05/24 03:20:24;;;;;;;1.67;0.90;;;10.40;99.90;;;;;;4937517;29;20181;-78
2021/05/24 03:22:50;;;;;;;1.43;1.10;;;10.40;99.90;;;;;;4938605;29;20512;-78
2021/05/24 03:25:17;;;;;;;3.08;1.00;;;10.50;99.90;;;;;;4938693;29;20422;-79
2021/05/24 03:27:44;;;;;;;4.45;1.10;;;10.50;99.90;;;;;;4938823;29;20520;-78
2021/05/24 03:30:11;;;;;;;2.65;0.98;;;10.50;99.90;;;;;;4938928;29;20173;-78
2021/05/24 03:32:37;;;;;;;1.30;0.90;;;10.50;99.90;;;;;;4938554;29;20182;-79
2021/05/24 03:35:04;;;;;;;3.33;1.10;;;10.50;99.90;;;;;;4938389;29;20288;-78
2021/05/24 03:37:30;;;;;;;1.10;0.90;;;10.50;99.90;;;;;;4938752;29;20528;-79
2021/05/24 03:39:55;;;;;;;1.37;0.70;;;10.50;99.90;;;;;;4937491;29;20205;-78
2021/05/24 03:42:21;;;;;;;9.20;1.10;;;10.50;99.90;;;;;;4937475;29;20190;-78
2021/05/24 03:44:47;;;;;;;2.13;1.00;;;10.60;99.90;;;;;;4938064;29;20209;-78
2021/05/24 03:47:13;;;;;;;3.17;1.00;;;10.60;99.90;;;;;;4937250;29;20669;-78
2021/05/24 03:49:44;;;;;;;3.42;0.95;;;10.50;99.90;;;;;;4921499;29;20228;-78
2021/05/24 03:52:11;;;;;;;2.97;1.27;;;10.50;99.90;;;;;;4938403;29;20622;-78
2021/05/24 03:54:37;;;;;;;3.75;0.90;;;10.60;99.90;;;;;;4936736;29;20228;-78
2021/05/24 03:57:02;;;;;;;1.50;1.00;;;10.60;99.90;;;;;;4938415;29;20220;-78
2021/05/24 03:59:28;;;;;;;1.20;1.00;;;10.60;99.90;;;;;;4937124;29;20212;-78
2021/05/24 04:01:54;;;;;;;2.23;1.10;;;10.70;99.90;;;;;;4936855;29;20228;-77
2021/05/24 04:04:19;;;;;;;2.77;1.00;;;10.70;99.90;;;;;;4937665;29;20296;-77
2021/05/24 04:06:51;;;;;;;4.10;1.30;;;10.80;99.90;;;;;;4936899;29;20181;-79
2021/05/24 04:09:17;;;;;;;3.05;1.20;;;10.70;99.90;;;;;;4936711;29;20173;-78
2021/05/24 04:11:42;;;;;;;2.30;1.20;;;10.80;99.90;;;;;;4936494;29;20188;-79
2021/05/24 04:14:08;;;;;;;1.57;1.10;;;10.90;99.90;;;;;;4936871;29;20213;-79
2021/05/24 04:16:34;;;;;;;2.70;0.90;;;10.90;99.90;;;;;;4937985;29;20528;-78
2021/05/24 04:19:06;;;;;;;2.95;1.10;;;10.90;99.90;;;;;;4937922;29;20681;-78
2021/05/24 04:21:31;;;;;;;1.98;1.13;;;10.90;99.90;;;;;;4937747;29;20176;-77
2021/05/24 04:23:57;;;;;;;3.63;1.60;;;10.90;99.90;;;;;;4937344;29;20296;-78
2021/05/24 04:26:22;;;;;;;3.43;1.10;;;10.90;99.90;;;;;;4937766;29;20633;-78
2021/05/24 04:28:48;;;;;;;1.77;1.10;;;10.90;99.90;;;;;;4936573;29;20178;-78
2021/05/24 04:31:13;;;;;;;1.30;1.03;;;10.90;99.90;;;;;;4937642;29;20182;-78
2021/05/24 04:33:39;;;;;;;5.00;1.30;;;10.90;99.90;;;;;;4937227;29;20211;-78
2021/05/24 04:36:05;;;;;;;2.27;0.93;;;10.90;99.90;;;;;;4937572;29;20182;-78
2021/05/24 04:38:30;;;;;;;3.50;1.47;;;10.90;99.90;;;;;;4937506;29;20209;-78
2021/05/24 04:40:56;;;;;;;2.70;1.13;;;10.80;99.90;;;;;;4937507;29;20189;-78
2021/05/24 04:43:27;;;;;;;1.63;1.10;;;10.90;99.90;;;;;;4935886;29;20291;-78
2021/05/24 04:45:53;;;;;;;2.33;1.25;;;10.90;99.90;;;;;;4936287;29;20204;-78
2021/05/24 04:48:18;;;;;;;2.93;0.90;;;10.90;99.90;;;;;;4936051;29;20186;-78
2021/05/24 04:50:44;;;;;;;4.63;1.27;;;10.90;99.90;;;;;;4936410;29;20185;-78
2021/05/24 04:53:09;;;;;;;2.17;1.00;;;10.90;99.90;;;;;;4935822;29;20205;-78
2021/05/24 04:55:35;;;;;;;3.43;1.20;;;10.90;99.90;;;;;;4937175;29;20265;-78
2021/05/24 04:58:01;;;;;;;3.17;1.33;;;10.90;99.90;;;;;;4937150;29;20552;-78
2021/05/24 05:00:26;;;;;;;2.07;1.10;;;10.90;99.90;;;;;;4937058;29;20606;-78
2021/05/24 05:02:52;;;;;;;2.57;0.93;;;10.90;99.90;;;;;;4935610;29;20216;-78
2021/05/24 05:05:18;;;;;;;1.57;1.13;;;10.90;99.90;;;;;;4937156;29;20185;-78
2021/05/24 05:07:43;;;;;;;2.17;1.03;;;10.90;99.90;;;;;;4937005;29;20201;-78
2021/05/24 05:10:09;;;;;;;2.37;1.13;;;10.90;99.90;;;;;;4936997;29;20181;-77
2021/05/24 05:12:35;;;;;;;5.53;1.42;;;10.90;99.90;;;;;;4936887;29;20174;-78
2021/05/24 05:15:01;;;;;;;1.47;1.27;;;11.00;99.90;;;;;;4936442;29;20220;-78
2021/05/24 05:17:26;;;;;;;1.57;1.00;;;11.00;99.90;;;;;;4936827;29;20421;-79
2021/05/24 05:19:52;;;;;;;2.00;0.90;;;11.10;99.90;;;;;;4935707;29;20244;-78
2021/05/24 05:22:18;;;;;;;2.63;1.00;;;11.10;99.90;;;;;;4936518;29;20445;-78
2021/05/24 05:24:43;;;;;;;3.40;1.80;;;11.10;99.90;;;;;;4936098;29;20198;-77
2021/05/24 05:27:09;;;;;;;3.80;0.90;;;11.20;99.90;;;;;;4935530;29;20178;-78
2021/05/24 05:29:34;;;;;;;2.90;1.10;;;11.20;99.90;;;;;;4936502;29;20209;-78
2021/05/24 05:32:00;;;;;;;3.17;1.10;;;11.20;99.90;;;;;;4936400;29;20265;-78
2021/05/24 05:34:26;;;;;;;1.53;1.10;;;11.30;99.90;;;;;;4934643;29;20266;-78
2021/05/24 05:36:52;;;;;;;5.70;1.10;;;11.30;99.90;;;;;;4936429;29;20193;-78
2021/05/24 05:39:17;;;;;;;2.13;1.30;;;11.40;99.90;;;;;;4936449;29;20212;-78
2021/05/24 05:41:43;;;;;;;2.20;0.90;;;11.50;99.90;;;;;;4936487;29;20188;-78
2021/05/24 05:44:09;;;;;;;2.00;1.10;;;11.60;99.90;;;;;;4935877;29;20268;-78
2021/05/24 05:46:35;;;;;;;2.70;1.13;;;11.80;99.90;;;;;;4919384;29;20604;-78
2021/05/24 05:49:01;;;;;;;1.42;0.98;;;11.90;99.90;;;;;;4936198;29;20177;-78
2021/05/24 05:51:27;;;;;;;1.73;0.87;;;12.00;99.90;;;;;;4936181;29;20241;-79
2021/05/24 05:53:53;;;;;;;1.73;0.80;;;12.10;99.90;;;;;;4936000;29;20212;-78
2021/05/24 05:56:20;;;;;;;2.35;0.95;;;12.10;99.90;;;;;;4936158;29;20507;-78
2021/05/24 05:58:45;;;;;;;2.40;1.00;;;12.20;99.90;;;;;;4935207;29;20190;-79
2021/05/24 06:01:11;;;;;;;3.30;0.93;;;12.30;99.90;;;;;;4935283;29;20425;-79
2021/05/24 06:03:37;;;;;;;3.30;0.90;;;12.40;99.90;;;;;;4918759;29;20213;-77
2021/05/24 06:06:03;;;;;;;1.93;0.90;;;12.50;99.90;;;;;;4936298;29;20409;-78
2021/05/24 06:08:29;;;;;;;3.67;1.00;;;12.60;99.90;;;;;;4935981;29;20540;-79
2021/05/24 06:10:56;;;;;;;10.43;1.00;;;12.70;99.90;;;;;;4935969;29;20445;-78
2021/05/24 06:13:22;;;;;;;2.03;1.00;;;12.70;99.90;;;;;;4935683;29;20193;-78
2021/05/24 06:15:48;;;;;;;1.60;1.03;;;12.90;99.90;;;;;;4935915;29;20503;-78
2021/05/24 06:18:13;;;;;;;2.10;0.87;;;13.00;99.90;;;;;;4919095;29;20197;-78
2021/05/24 06:20:42;;;;;;;1.77;1.00;;;13.10;99.90;;;;;;4935775;29;20186;-79
2021/05/24 06:23:08;;;;;;;3.83;0.80;;;13.30;99.90;;;;;;4934443;29;20255;-78
2021/05/24 06:25:35;;;;;;;2.03;0.80;;;13.40;99.90;;;;;;4935934;29;20433;-78
2021/05/24 06:28:01;;;;;;;3.30;1.00;;;13.50;99.90;;;;;;4934781;29;20181;-78
2021/05/24 06:30:27;;;;;;;3.80;0.97;;;13.50;99.90;;;;;;4935804;29;20450;-78
2021/05/24 06:32:52;;;;;;;2.50;0.90;;;13.60;99.90;;;;;;4934241;29;20185;-78
2021/05/24 06:35:19;;;;;;;1.77;0.90;;;13.70;99.90;;;;;;4936021;29;20186;-78
2021/05/24 06:37:45;;;;;;;1.77;0.90;;;13.70;99.90;;;;;;4939883;29;20592;-78
2021/05/24 06:40:11;;;;;;;2.00;1.10;;;13.90;99.90;;;;;;4938600;29;20429;-78
2021/05/24 06:42:37;;;;;;;1.20;0.73;;;14.00;99.90;;;;;;4939469;29;20276;-79
2021/05/24 06:45:05;;;;;;;2.77;1.00;;;14.10;99.90;;;;;;4937953;29;20535;-78
2021/05/24 06:47:30;;;;;;;3.13;0.97;;;14.10;99.90;;;;;;4938318;29;20268;-78
2021/05/24 06:49:56;;;;;;;2.20;1.00;;;14.20;99.90;;;;;;4939490;29;20512;-78
2021/05/24 06:52:21;;;;;;;2.10;0.90;;;14.30;99.90;;;;;;4938397;29;20181;-78
2021/05/24 06:54:47;;;;;;;3.60;1.10;;;14.40;99.90;;;;;;4938082;29;20197;-79
2021/05/24 06:57:13;;;;;;;1.40;1.10;;;14.50;99.90;;;;;;4939160;29;20194;-78
2021/05/24 06:59:39;;;;;;;3.30;0.90;;;14.70;99.90;;;;;;4938056;29;20496;-78
2021/05/24 07:02:05;;;;;;;2.10;1.10;;;14.80;99.90;;;;;;4939100;29;20647;-78
2021/05/24 07:04:30;;;;;;;1.47;0.83;;;15.00;99.90;;;;;;4938668;29;20217;-78
2021/05/24 07:06:56;;;;;;;3.73;1.20;;;15.20;99.90;;;;;;4939182;29;20418;-78
2021/05/24 07:09:22;;;;;;;1.90;0.97;;;15.50;99.90;;;;;;4937660;29;20188;-78
2021/05/24 07:11:47;;;;;;;3.13;1.33;;;15.60;99.90;;;;;;4939060;29;20185;-78
2021/05/24 07:14:13;;;;;;;1.90;1.20;;;15.70;99.90;;;;;;4938495;29;20252;-78
2021/05/24 07:16:39;;;;;;;1.53;0.90;;;15.70;99.90;;;;;;4938991;29;20670;-78
2021/05/24 07:19:05;;;;;;;4.47;1.57;;;15.80;99.90;;;;;;4937637;29;20907;-78
2021/05/24 07:21:31;;;;;;;1.53;0.83;;;16.00;99.90;;;;;;4938865;29;20196;-78
2021/05/24 07:23:56;;;;;;;2.10;1.10;;;16.20;99.90;;;;;;4937132;29;20221;-77
2021/05/24 07:26:22;;;;;;;2.70;1.00;;;16.30;99.90;;;;;;4938661;29;20751;-80
2021/05/24 07:28:47;;;;;;;1.10;0.80;;;16.60;99.90;;;;;;4938477;29;20189;-81
2021/05/24 07:31:13;;;;;;;2.43;0.93;;;16.90;99.90;;;;;;4938498;29;20224;-81
2021/05/24 07:33:41;;;;;;;2.10;0.93;;;17.00;99.90;;;;;;4938152;29;20212;-82
2021/05/24 07:36:07;;;;;;;2.93;0.83;;;17.10;99.90;;;;;;4937452;29;20195;-81
2021/05/24 07:38:32;;;;;;;1.63;1.10;;;17.20;99.90;;;;;;4937113;29;20524;-82
2021/05/24 07:40:58;;;;;;;2.10;0.80;;;17.40;99.90;;;;;;4938533;29;20190;-82
2021/05/24 07:43:24;;;;;;;4.20;1.80;;;17.60;99.90;;;;;;4938066;29;20694;-81
2021/05/24 07:45:49;;;;;;;2.20;0.90;;;17.50;99.90;;;;;;4938364;29;20650;-82
2021/05/24 07:48:15;;;;;;;1.60;1.10;;;17.50;99.90;;;;;;4935916;29;20185;-82
2021/05/24 07:50:40;;;;;;;3.23;0.93;;;17.70;99.90;;;;;;4937290;29;20186;-83
2021/05/24 07:53:06;;;;;;;1.53;0.83;;;17.60;99.90;;;;;;4936779;29;20198;-81
2021/05/24 07:55:31;;;;;;;2.97;0.97;;;17.70;99.90;;;;;;4936958;29;20181;-81
2021/05/24 07:57:57;;;;;;;2.80;0.90;;;17.80;99.90;;;;;;4938150;29;20181;-83
2021/05/24 08:00:26;;;;;;;2.70;1.17;;;17.80;99.90;;;;;;4937906;29;20737;-82
2021/05/24 08:02:52;;;;;;;1.43;0.80;;;17.50;99.90;;;;;;4934063;29;20570;-82
2021/05/24 08:05:18;;;;;;;1.77;1.00;;;17.50;99.90;;;;;;4938075;29;20417;-81
2021/05/24 08:07:44;;;;;;;1.37;1.10;;;17.40;99.90;;;;;;4936622;29;20426;-82
2021/05/24 08:10:10;;;;;;;3.00;0.93;;;17.50;99.90;;;;;;4937978;29;20212;-81
2021/05/24 08:12:38;;;;;;;1.40;1.00;;;17.50;99.90;;;;;;4937770;29;20396;-81
2021/05/24 08:15:09;;;;;;;3.90;1.60;;;17.50;99.90;;;;;;4937572;29;20432;-82
2021/05/24 08:17:36;;;;;;;1.70;0.73;;;17.40;99.90;;;;;;4937755;29;20408;-82
2021/05/24 08:20:04;;;;;;;2.07;1.10;;;17.20;99.90;;;;;;4936638;29;20764;-83
2021/05/24 08:22:29;;;;;;;2.40;0.93;;;17.20;99.90;;;;;;4937614;29;20744;-83
2021/05/24 08:24:55;;;;;;;1.30;0.80;;;17.20;99.90;;;;;;4937370;29;20436;-82
2021/05/24 08:27:21;;;;;;;2.23;0.80;;;17.20;99.90;;;;;;4937841;29;20676;-82
2021/05/24 08:29:46;;;;;;;1.90;0.90;;;17.10;99.90;;;;;;4937579;29;20181;-82
2021/05/24 08:32:12;;;;;;;3.70;0.90;;;17.20;99.90;;;;;;4936369;29;20190;-81
2021/05/24 08:34:38;;;;;;;3.10;0.87;;;17.20;99.90;;;;;;4937288;29;20205;-81
2021/05/24 08:37:04;;;;;;;2.90;0.73;;;17.20;99.90;;;;;;4937667;29;20607;-82
2021/05/24 08:39:29;;;;;;;2.43;1.17;;;17.30;99.90;;;;;;4937569;29;20835;-81
2021/05/24 08:41:57;;;;;;;2.53;1.00;;;17.20;99.90;;;;;;4937390;29;20449;-81
2021/05/24 08:44:23;;;;;;;3.57;1.50;;;17.30;99.90;;;;;;4936832;29;20217;-81
2021/05/24 08:46:49;;;;;;;1.57;0.90;;;17.40;99.90;;;;;;4937454;29;20417;-81
2021/05/24 08:49:15;;;;;;;4.20;1.13;;;17.10;99.90;;;;;;4935989;29;20520;-82
2021/05/24 08:51:40;;;;;;;4.10;1.20;;;17.00;99.90;;;;;;4937207;29;20192;-80
2021/05/24 08:54:06;;;;;;;1.37;0.80;;;17.00;99.90;;;;;;4935556;29;20833;-83
2021/05/24 08:56:32;;;;;;;3.07;1.00;;;16.90;99.90;;;;;;4937086;29;20208;-81
2021/05/24 08:59:00;;;;;;;2.10;0.93;;;16.90;99.90;;;;;;4935446;29;20935;-80
2021/05/24 09:01:26;;;;;;;4.07;0.90;;;17.10;99.90;;;;;;4937007;29;20194;-80
2021/05/24 09:04:03;;;;;;;6.13;1.47;;;17.20;99.90;;;;;;4935295;29;20477;-80
2021/05/24 09:06:40;;;;;;;2.13;1.17;;;17.20;99.90;;;;;;4936978;29;20404;-82
2021/05/24 09:09:13;;;;;;;3.53;0.93;;;17.00;99.90;;;;;;4936956;29;20417;-79
2021/05/24 09:11:40;;;;;;;2.83;1.30;;;17.00;99.90;;;;;;4919761;29;20439;-82
2021/05/24 09:14:18;;;;;;;4.33;1.10;;;17.00;99.90;;;;;;4919225;29;20504;-80
2021/05/24 09:16:44;;;;;;;3.20;1.00;;;16.90;99.90;;;;;;4936855;29;20413;-81
2021/05/24 09:19:11;;;;;;;3.10;1.00;;;16.90;99.90;;;;;;4919767;29;20440;-80
2021/05/24 09:21:36;;;;;;;4.50;1.40;;;17.00;99.90;;;;;;4936535;29;20476;-79
2021/05/24 09:24:28;;;;;;;2.17;1.17;;;16.90;99.90;;;;;;4936066;29;20886;-83
2021/05/24 09:26:55;;;;;;;3.50;0.90;;;17.10;99.90;;;;;;4935379;29;20184;-80
2021/05/24 09:29:24;;;;;;;2.80;1.17;;;17.10;99.90;;;;;;4936691;29;20396;-80
2021/05/24 09:32:11;;;;;;;2.57;1.00;;;17.00;99.90;;;;;;4935303;29;20798;-81
2021/05/24 09:34:39;;;;;;;3.07;0.90;;;17.00;99.90;;;;;;4936174;29;20425;-80
2021/05/24 09:37:05;;;;;;;3.00;1.03;;;17.00;99.90;;;;;;4935178;29;20758;-81
2021/05/24 09:39:32;;;;;;;2.13;1.10;;;17.10;99.90;;;;;;4935124;29;20425;-80
2021/05/24 09:42:05;;;;;;;2.40;1.10;;;16.90;99.90;;;;;;4936240;29;20413;-80
2021/05/24 09:44:32;;;;;;;6.03;1.40;;;17.00;99.90;;;;;;4919588;29;20448;-81
2021/05/24 09:47:02;;;;;;;4.40;1.00;;;17.00;99.90;;;;;;4936161;29;20399;-79
2021/05/24 09:49:30;;;;;;;5.90;1.20;;;17.00;99.90;;;;;;4936271;29;20413;-79
2021/05/24 09:51:58;;;;;;;2.57;1.00;;;17.00;99.90;;;;;;4935158;29;20388;-82
2021/05/24 09:54:33;;;;;;;2.70;0.97;;;17.00;99.90;;;;;;4935854;29;20499;-80
2021/05/24 09:57:09;;;;;;;4.37;0.80;;;17.10;99.90;;;;;;4934828;29;20424;-81
2021/05/24 09:59:35;;;;;;;2.63;0.73;;;17.10;99.90;;;;;;4936145;29;20400;-79
2021/05/24 10:02:05;;;;;;;4.20;1.43;;;17.00;99.90;;;;;;4936131;29;20392;-82
2021/05/24 10:04:34;;;;;;;1.87;0.70;;;16.90;99.90;;;;;;4935596;29;20443;-83
2021/05/24 10:07:02;;;;;;;1.10;0.77;;;16.90;99.90;;;;;;4936195;29;20763;-81
2021/05/24 10:09:32;;;;;;;2.30;1.07;;;16.90;99.90;;;;;;4935815;29;20396;-83
2021/05/24 10:11:59;;;;;;;1.50;0.70;;;16.70;99.90;;;;;;4935805;29;20421;-80
2021/05/24 10:14:26;;;;;;;3.30;1.40;;;16.70;99.90;;;;;;4935479;29;20444;-82
2021/05/24 10:17:00;;;;;;;2.63;0.97;;;16.60;99.90;;;;;;4934727;29;20494;-80
2021/05/24 10:19:26;;;;;;;1.50;0.70;;;16.70;99.90;;;;;;4935941;29;20394;-80
2021/05/24 10:21:52;;;;;;;2.20;1.10;;;16.70;99.90;;;;;;4934605;29;20415;-84
2021/05/24 10:24:23;;;;;;;1.63;0.90;;;16.70;99.90;;;;;;4935676;29;20469;-84
2021/05/24 10:26:49;;;;;;;1.20;1.00;;;16.70;99.90;;;;;;4935954;29;20740;-81
2021/05/24 10:29:18;;;;;;;1.20;0.90;;;16.80;99.90;;;;;;4935945;29;20421;-82
2021/05/24 10:31:46;;;;;;;1.70;1.03;;;16.90;99.90;;;;;;4934688;29;20451;-81
2021/05/24 10:34:16;;;;;;;1.97;0.90;;;17.00;99.90;;;;;;4934145;29;20473;-84
2021/05/24 10:36:43;;;;;;;2.20;0.80;;;17.00;99.90;;;;;;4935710;29;20822;-82
2021/05/24 10:39:25;;;;;;;4.80;1.50;;;17.20;99.90;;;;;;4934402;29;20424;-81
2021/05/24 10:41:57;;;;;;;1.00;0.60;;;17.30;99.90;;;;;;4935918;29;20781;-82
2021/05/24 10:44:31;;;;;;;1.87;0.80;;;17.20;99.90;;;;;;4935268;29;20461;-81
2021/05/24 10:47:14;;;;;;;4.03;1.00;;;17.10;99.90;;;;;;4934322;29;20994;-82
2021/05/24 10:50:07;;;;;;;3.10;0.80;;;17.20;99.90;;;;;;4934447;29;20464;-82
2021/05/24 10:52:38;;;;;;;3.37;1.37;;;17.10;99.90;;;;;;4932322;29;20428;-84
2021/05/24 10:55:25;;;;;;;3.33;0.90;;;17.00;99.90;;;;;;4935446;29;20412;-83
2021/05/24 10:57:59;;;;;;;3.73;0.90;;;16.90;99.90;;;;;;4935823;29;20405;-83
2021/05/24 11:00:25;;;;;;;2.10;0.90;;;16.80;99.90;;;;;;4935630;29;20779;-83
2021/05/24 11:02:56;;;;;;;0.80;0.63;;;16.80;99.90;;;;;;4934064;29;20469;-79
2021/05/24 11:05:30;;;;;;;1.80;0.70;;;16.80;99.90;;;;;;4935837;29;20413;-83
2021/05/24 11:08:06;;;;;;;0.90;0.60;;;16.70;99.90;;;;;;4935841;29;20412;-82
2021/05/24 11:10:39;;;;;;;2.77;0.63;;;16.80;99.90;;;;;;4938141;29;20492;-82
2021/05/24 11:13:11;;;;;;;1.40;0.63;;;16.70;99.90;;;;;;4938023;29;20801;-82
2021/05/24 11:15:42;;;;;;;1.20;0.70;;;16.70;99.90;;;;;;4938395;29;20461;-83
2021/05/24 11:18:07;;;;;;;1.10;0.60;;;16.60;99.90;;;;;;4920636;29;20400;-83
2021/05/24 11:20:43;;;;;;;0.80;0.40;;;16.60;99.90;;;;;;4936132;29;20412;-82
2021/05/24 11:29:07;;;;;;;1.23;0.57;;;16.20;99.90;;;;;;4941027;29;20413;-82
2021/05/24 11:31:38;;;;;;;2.00;0.50;;;16.20;99.90;;;;;;4937504;29;20418;-82
2021/05/24 11:34:10;;;;;;;1.07;0.73;;;16.10;99.90;;;;;;4938316;29;20436;-81
2021/05/24 11:36:39;;;;;;;0.67;0.50;;;16.00;99.90;;;;;;4938842;29;20413;-85
2021/05/24 11:39:11;;;;;;;0.87;0.50;;;15.80;99.90;;;;;;4938417;29;20404;-81
2021/05/24 11:41:53;;;;;;;1.37;0.60;;;15.80;99.90;;;;;;4938488;29;20425;-81
2021/05/24 11:44:44;;;;;;;0.83;0.70;;;15.80;99.90;;;;;;4938115;29;20469;-81
2021/05/24 11:47:14;;;;;;;0.70;0.50;;;15.70;99.90;;;;;;4933565;29;20931;-83
2021/05/24 11:49:42;;;;;;;1.17;0.60;;;15.70;99.90;;;;;;4938658;29;20396;-82
2021/05/24 11:52:11;;;;;;;0.93;0.67;;;15.60;99.90;;;;;;4938427;29;20456;-81
2021/05/24 11:54:37;;;;;;;0.73;0.50;;;15.30;99.90;;;;;;4938000;29;20461;-80
2021/05/24 11:57:06;;;;;;;0.70;0.50;;;15.20;99.90;;;;;;4938291;29;20780;-79
2021/05/24 11:59:32;;;;;;;0.90;0.70;;;15.00;99.90;;;;;;4936737;29;20429;-82
2021/05/24 12:02:00;;;;;;;2.50;0.60;;;15.10;99.90;;;;;;4938631;29;20396;-82
2021/05/24 12:04:29;;;;;;;0.90;0.50;;;15.10;99.90;;;;;;4937629;29;20511;-81
2021/05/24 12:07:06;;;;;;;1.47;0.40;;;15.20;99.90;;;;;;4937927;29;20435;-80
2021/05/24 12:09:42;;;;;;;0.70;0.50;;;15.40;99.90;;;;;;4937815;29;20412;-80
2021/05/24 12:12:16;;;;;;;0.70;0.50;;;15.30;99.90;;;;;;4938135;29;20437;-82
2021/05/24 12:14:46;;;;;;;0.67;0.50;;;15.40;99.90;;;;;;4936261;29;20464;-81
2021/05/24 12:17:16;;;;;;;0.67;0.50;;;15.60;99.90;;;;;;4936870;29;20425;-81
2021/05/24 12:19:43;;;;;;;0.70;0.50;;;15.70;99.90;;;;;;4936479;29;20930;-82
2021/05/24 12:22:12;;;;;;;0.70;0.50;;;15.50;99.90;;;;;;4937796;29;20425;-79
2021/05/24 12:24:42;;;;;;;0.60;0.50;;;15.60;99.90;;;;;;4937374;29;20469;-82
2021/05/24 12:27:09;;;;;;;1.63;1.00;;;15.60;99.90;;;;;;4937819;29;20914;-80
2021/05/24 12:29:54;;;;;;;0.70;0.60;;;15.70;99.90;;;;;;4936390;29;20906;-84
2021/05/24 12:32:47;;;;;;;0.90;0.60;;;15.60;99.90;;;;;;4937669;29;20405;-81
2021/05/24 12:35:16;;;;;;;1.30;0.50;;;15.60;99.90;;;;;;4935558;29;20781;-82
2021/05/24 12:37:48;;;;;;;0.80;0.50;;;15.70;99.90;;;;;;4936074;29;20418;-80
2021/05/24 12:40:14;;;;;;;0.90;0.60;;;15.70;99.90;;;;;;4937626;29;20417;-81
2021/05/24 12:42:41;;;;;;;0.70;0.60;;;15.70;99.90;;;;;;4935836;29;20957;-84
2021/05/24 12:45:12;;;;;;;0.90;0.50;;;15.80;99.90;;;;;;4936954;29;20437;-82
2021/05/24 12:47:38;;;;;;;1.20;0.80;;;15.70;99.90;;;;;;4937140;29;20421;-84
2021/05/24 12:50:11;;;;;;;1.53;1.40;;;15.70;99.90;;;;;;4937150;29;20441;-82
2021/05/24 12:52:37;;;;;;;1.00;0.80;;;15.70;99.90;;;;;;4935895;29;20395;-80
2021/05/24 12:55:18;;;;;;;1.53;0.70;;;15.70;99.90;;;;;;4935680;29;20449;-82